sensor_id;sensor_type;location;lat;lon;timestamp;temperature;humidity
23556;DHT22;11956;53.184;8.578;2023-02-28T00:02:48;4.30;99.90
23556;DHT22;11956;53.184;8.578;2023-02-28T00:05:49;4.30;99.90
23556;DHT22;11956;53.184;8.578;2023-02-28T00:08:50;4.30;99.90
23556;DHT22;11956;53.184;8.578;2023-02-28T00:11:51;4.30;99.90
23556;DHT22;11956;53.184;8.578;2023-02-28T00:14:52;4.10;99.90
23556;DHT22;11956;53.184;8.578;2023-02-28T00:17:53;4.10;99.90
23556;DHT22;11956;53.184;8.578;2023-02-28T00:20:54;4.10;99.90
23556;DHT22;11956;53.184;8.578;2023-02-28T00:23:55;4.10;99.90
23556;DHT22;11956;53.184;8.578;2023-02-28T00:26:55;4.20;99.90
23556;DHT22;11956;53.184;8.578;2023-02-28T00:29:56;4.20;99.90
23556;DHT22;11956;53.184;8.578;2023-02-28T00:32:57;4.20;99.90
23556;DHT22;11956;53.184;8.578;2023-02-28T00:36:09;4.30;99.90
23556;DHT22;11956;53.184;8.578;2023-02-28T00:39:11;4.30;99.90
23556;DHT22;11956;53.184;8.578;2023-02-28T00:42:12;4.20;99.90
23556;DHT22;11956;53.184;8.578;2023-02-28T00:45:12;4.20;99.90
23556;DHT22;11956;53.184;8.578;2023-02-28T00:48:13;4.20;99.90
23556;DHT22;11956;53.184;8.578;2023-02-28T00:51:14;4.20;99.90
23556;DHT22;11956;53.184;8.578;2023-02-28T00:54:16;4.20;99.90
23556;DHT22;11956;53.184;8.578;2023-02-28T00:57:17;4.20;99.90
23556;DHT22;11956;53.184;8.578;2023-02-28T01:00:18;4.20;99.90
23556;DHT22;11956;53.184;8.578;2023-02-28T01:03:20;4.10;99.90
23556;DHT22;11956;53.184;8.578;2023-02-28T01:06:21;4.10;99.90
23556;DHT22;11956;53.184;8.578;2023-02-28T01:09:22;4.10;99.90
23556;DHT22;11956;53.184;8.578;2023-02-28T01:12:23;4.10;99.90
23556;DHT22;11956;53.184;8.578;2023-02-28T01:15:24;4.20;99.90
23556;DHT22;11956;53.184;8.578;2023-02-28T01:18:25;4.20;99.90
23556;DHT22;11956;53.184;8.578;2023-02-28T01:21:26;4.10;99.90
23556;DHT22;11956;53.184;8.578;2023-02-28T01:24:27;4.10;99.90
23556;DHT22;11956;53.184;8.578;2023-02-28T01:27:28;4.10;99.90
23556;DHT22;11956;53.184;8.578;2023-02-28T01:30:29;4.20;99.90
23556;DHT22;11956;53.184;8.578;2023-02-28T01:33:31;4.20;99.90
23556;DHT22;11956;53.184;8.578;2023-02-28T01:36:33;4.20;99.90
23556;DHT22;11956;53.184;8.578;2023-02-28T01:39:34;4.20;99.90
23556;DHT22;11956;53.184;8.578;2023-02-28T01:42:35;4.20;99.90
23556;DHT22;11956;53.184;8.578;2023-02-28T01:45:37;4.20;99.90
23556;DHT22;11956;53.184;8.578;2023-02-28T01:48:48;4.30;99.90
23556;DHT22;11956;53.184;8.578;2023-02-28T01:51:56;4.30;99.90
23556;DHT22;11956;53.184;8.578;2023-02-28T01:55:01;4.30;99.90
23556;DHT22;11956;53.184;8.578;2023-02-28T01:58:06;4.30;99.90
23556;DHT22;11956;53.184;8.578;2023-02-28T02:01:07;4.30;99.90
23556;DHT22;11956;53.184;8.578;2023-02-28T02:04:08;4.30;99.90
23556;DHT22;11956;53.184;8.578;2023-02-28T02:07:10;4.30;99.90
23556;DHT22;11956;53.184;8.578;2023-02-28T02:10:13;4.20;99.90
23556;DHT22;11956;53.184;8.578;2023-02-28T02:13:42;4.20;99.90
23556;DHT22;11956;53.184;8.578;2023-02-28T02:17:09;4.10;99.90
23556;DHT22;11956;53.184;8.578;2023-02-28T02:41:57;4.00;99.90
23556;DHT22;11956;53.184;8.578;2023-02-28T02:45:07;4.00;99.90
23556;DHT22;11956;53.184;8.578;2023-02-28T02:48:15;4.00;99.90
23556;DHT22;11956;53.184;8.578;2023-02-28T02:51:21;4.00;99.90
23556;DHT22;11956;53.184;8.578;2023-02-28T02:54:28;4.00;99.90
23556;DHT22;11956;53.184;8.578;2023-02-28T02:57:38;4.10;99.90
23556;DHT22;11956;53.184;8.578;2023-02-28T03:00:50;4.10;99.90
23556;DHT22;11956;53.184;8.578;2023-02-28T03:04:17;4.10;99.90
23556;DHT22;11956;53.184;8.578;2023-02-28T03:07:18;4.00;99.90
23556;DHT22;11956;53.184;8.578;2023-02-28T03:10:33;4.00;99.90
23556;DHT22;11956;53.184;8.578;2023-02-28T03:20:36;3.90;99.90
23556;DHT22;11956;53.184;8.578;2023-02-28T03:23:45;3.90;99.90
23556;DHT22;11956;53.184;8.578;2023-02-28T03:26:58;3.90;99.90
23556;DHT22;11956;53.184;8.578;2023-02-28T03:30:26;3.90;99.90
23556;DHT22;11956;53.184;8.578;2023-02-28T03:33:42;3.90;99.90
23556;DHT22;11956;53.184;8.578;2023-02-28T03:36:59;3.80;99.90
23556;DHT22;11956;53.184;8.578;2023-02-28T03:40:17;3.80;99.90
23556;DHT22;11956;53.184;8.578;2023-02-28T03:43:29;3.80;99.90
23556;DHT22;11956;53.184;8.578;2023-02-28T03:46:36;3.70;99.90
23556;DHT22;11956;53.184;8.578;2023-02-28T03:49:57;3.70;99.90
23556;DHT22;11956;53.184;8.578;2023-02-28T03:54:06;3.70;99.90
23556;DHT22;11956;53.184;8.578;2023-02-28T03:56:48;3.80;99.90
23556;DHT22;11956;53.184;8.578;2023-02-28T03:59:59;3.80;99.90
23556;DHT22;11956;53.184;8.578;2023-02-28T04:03:13;3.90;99.90
23556;DHT22;11956;53.184;8.578;2023-02-28T04:06:22;3.90;99.90
23556;DHT22;11956;53.184;8.578;2023-02-28T04:09:23;4.00;99.90
23556;DHT22;11956;53.184;8.578;2023-02-28T04:12:25;4.00;99.90
23556;DHT22;11956;53.184;8.578;2023-02-28T04:15:26;4.00;99.90
23556;DHT22;11956;53.184;8.578;2023-02-28T04:18:27;3.80;99.90
23556;DHT22;11956;53.184;8.578;2023-02-28T04:21:29;3.80;99.90
23556;DHT22;11956;53.184;8.578;2023-02-28T04:24:30;3.80;99.90
23556;DHT22;11956;53.184;8.578;2023-02-28T04:27:31;3.90;99.90
23556;DHT22;11956;53.184;8.578;2023-02-28T04:30:32;3.80;99.90
23556;DHT22;11956;53.184;8.578;2023-02-28T04:33:33;3.70;99.90
23556;DHT22;11956;53.184;8.578;2023-02-28T04:36:33;3.70;99.90
23556;DHT22;11956;53.184;8.578;2023-02-28T04:39:36;3.70;99.90
23556;DHT22;11956;53.184;8.578;2023-02-28T04:42:37;3.60;99.90
23556;DHT22;11956;53.184;8.578;2023-02-28T04:45:38;3.70;99.90
23556;DHT22;11956;53.184;8.578;2023-02-28T04:48:39;3.60;99.90
23556;DHT22;11956;53.184;8.578;2023-02-28T04:51:41;3.60;99.90
23556;DHT22;11956;53.184;8.578;2023-02-28T04:54:42;3.50;99.90
23556;DHT22;11956;53.184;8.578;2023-02-28T04:57:43;3.30;99.90
23556;DHT22;11956;53.184;8.578;2023-02-28T05:00:44;3.40;99.90
23556;DHT22;11956;53.184;8.578;2023-02-28T05:03:45;3.40;99.90
23556;DHT22;11956;53.184;8.578;2023-02-28T05:06:46;3.40;99.90
23556;DHT22;11956;53.184;8.578;2023-02-28T05:09:47;3.30;99.90
23556;DHT22;11956;53.184;8.578;2023-02-28T05:12:48;3.40;99.90
23556;DHT22;11956;53.184;8.578;2023-02-28T05:15:49;3.40;99.90
23556;DHT22;11956;53.184;8.578;2023-02-28T05:18:50;3.20;99.90
23556;DHT22;11956;53.184;8.578;2023-02-28T05:21:53;3.30;99.90
23556;DHT22;11956;53.184;8.578;2023-02-28T05:24:55;3.40;99.90
23556;DHT22;11956;53.184;8.578;2023-02-28T05:27:56;3.40;99.90
23556;DHT22;11956;53.184;8.578;2023-02-28T05:30:56;3.40;99.90
23556;DHT22;11956;53.184;8.578;2023-02-28T05:33:57;3.40;99.90
23556;DHT22;11956;53.184;8.578;2023-02-28T05:36:58;3.50;99.90
23556;DHT22;11956;53.184;8.578;2023-02-28T05:39:59;3.40;99.90
23556;DHT22;11956;53.184;8.578;2023-02-28T05:43:00;3.50;99.90
23556;DHT22;11956;53.184;8.578;2023-02-28T05:46:09;3.40;99.90
23556;DHT22;11956;53.184;8.578;2023-02-28T05:49:11;3.40;99.90
23556;DHT22;11956;53.184;8.578;2023-02-28T05:52:12;3.40;99.90
23556;DHT22;11956;53.184;8.578;2023-02-28T05:55:12;3.40;99.90
23556;DHT22;11956;53.184;8.578;2023-02-28T05:58:13;3.30;99.90
23556;DHT22;11956;53.184;8.578;2023-02-28T06:01:44;3.20;99.90
23556;DHT22;11956;53.184;8.578;2023-02-28T06:04:48;3.20;99.90
23556;DHT22;11956;53.184;8.578;2023-02-28T06:07:50;3.10;99.90
23556;DHT22;11956;53.184;8.578;2023-02-28T06:10:50;3.00;99.90
23556;DHT22;11956;53.184;8.578;2023-02-28T06:13:53;3.00;99.90
23556;DHT22;11956;53.184;8.578;2023-02-28T06:16:56;2.90;99.90
23556;DHT22;11956;53.184;8.578;2023-02-28T06:19:57;2.80;99.90
23556;DHT22;11956;53.184;8.578;2023-02-28T06:22:58;2.70;99.90
23556;DHT22;11956;53.184;8.578;2023-02-28T06:25:59;2.60;99.90
23556;DHT22;11956;53.184;8.578;2023-02-28T06:29:00;2.60;99.90
23556;DHT22;11956;53.184;8.578;2023-02-28T06:32:01;2.60;99.90
23556;DHT22;11956;53.184;8.578;2023-02-28T06:35:03;2.60;99.90
23556;DHT22;11956;53.184;8.578;2023-02-28T06:38:04;2.50;99.90
23556;DHT22;11956;53.184;8.578;2023-02-28T06:41:06;2.50;99.90
23556;DHT22;11956;53.184;8.578;2023-02-28T06:44:15;2.60;99.90
23556;DHT22;11956;53.184;8.578;2023-02-28T06:47:18;2.70;99.90
23556;DHT22;11956;53.184;8.578;2023-02-28T06:50:19;3.30;99.90
23556;DHT22;11956;53.184;8.578;2023-02-28T06:53:21;3.80;99.90
23556;DHT22;11956;53.184;8.578;2023-02-28T06:56:22;4.10;99.90
23556;DHT22;11956;53.184;8.578;2023-02-28T06:59:24;4.10;99.90
23556;DHT22;11956;53.184;8.578;2023-02-28T07:02:27;4.10;99.90
23556;DHT22;11956;53.184;8.578;2023-02-28T07:05:28;4.30;99.90
23556;DHT22;11956;53.184;8.578;2023-02-28T07:08:30;4.80;99.90
23556;DHT22;11956;53.184;8.578;2023-02-28T07:11:32;5.90;99.90
23556;DHT22;11956;53.184;8.578;2023-02-28T07:14:33;7.40;99.90
23556;DHT22;11956;53.184;8.578;2023-02-28T07:17:34;8.30;99.90
23556;DHT22;11956;53.184;8.578;2023-02-28T07:20:35;9.20;99.90
23556;DHT22;11956;53.184;8.578;2023-02-28T07:23:36;8.90;99.90
23556;DHT22;11956;53.184;8.578;2023-02-28T07:26:42;9.80;99.90
23556;DHT22;11956;53.184;8.578;2023-02-28T07:29:42;11.30;99.90
23556;DHT22;11956;53.184;8.578;2023-02-28T07:32:43;11.40;99.10
23556;DHT22;11956;53.184;8.578;2023-02-28T07:35:44;12.20;97.70
23556;DHT22;11956;53.184;8.578;2023-02-28T07:38:47;13.00;96.00
23556;DHT22;11956;53.184;8.578;2023-02-28T07:41:50;14.00;93.40
23556;DHT22;11956;53.184;8.578;2023-02-28T07:44:51;14.90;91.20
23556;DHT22;11956;53.184;8.578;2023-02-28T07:47:53;15.90;88.30
23556;DHT22;11956;53.184;8.578;2023-02-28T07:50:58;16.70;84.10
23556;DHT22;11956;53.184;8.578;2023-02-28T07:53:59;16.90;81.90
23556;DHT22;11956;53.184;8.578;2023-02-28T07:57:00;17.50;80.20
23556;DHT22;11956;53.184;8.578;2023-02-28T08:00:03;18.30;76.60
23556;DHT22;11956;53.184;8.578;2023-02-28T08:03:12;18.60;72.90
23556;DHT22;11956;53.184;8.578;2023-02-28T08:06:20;19.30;70.20
23556;DHT22;11956;53.184;8.578;2023-02-28T08:09:23;19.70;67.90
23556;DHT22;11956;53.184;8.578;2023-02-28T08:12:25;19.50;67.00
23556;DHT22;11956;53.184;8.578;2023-02-28T08:15:27;19.20;66.30
23556;DHT22;11956;53.184;8.578;2023-02-28T08:18:28;19.20;66.50
23556;DHT22;11956;53.184;8.578;2023-02-28T08:21:30;19.70;64.40
23556;DHT22;11956;53.184;8.578;2023-02-28T08:24:31;19.20;65.80
23556;DHT22;11956;53.184;8.578;2023-02-28T08:27:35;19.10;64.40
23556;DHT22;11956;53.184;8.578;2023-02-28T08:30:36;18.80;64.90
23556;DHT22;11956;53.184;8.578;2023-02-28T08:33:38;18.60;64.50
23556;DHT22;11956;53.184;8.578;2023-02-28T08:36:39;18.90;65.00
23556;DHT22;11956;53.184;8.578;2023-02-28T08:39:41;19.40;64.00
23556;DHT22;11956;53.184;8.578;2023-02-28T08:42:41;19.10;63.30
23556;DHT22;11956;53.184;8.578;2023-02-28T08:45:42;18.60;65.20
23556;DHT22;11956;53.184;8.578;2023-02-28T08:48:44;18.80;63.10
23556;DHT22;11956;53.184;8.578;2023-02-28T08:51:44;18.90;63.20
23556;DHT22;11956;53.184;8.578;2023-02-28T08:54:47;18.80;63.40
23556;DHT22;11956;53.184;8.578;2023-02-28T08:57:47;18.80;63.00
23556;DHT22;11956;53.184;8.578;2023-02-28T09:00:48;19.20;63.00
23556;DHT22;11956;53.184;8.578;2023-02-28T09:03:50;20.10;60.80
23556;DHT22;11956;53.184;8.578;2023-02-28T09:06:52;20.60;59.00
23556;DHT22;11956;53.184;8.578;2023-02-28T09:09:52;20.50;58.30
23556;DHT22;11956;53.184;8.578;2023-02-28T09:12:56;21.30;58.40
23556;DHT22;11956;53.184;8.578;2023-02-28T09:15:58;20.40;57.60
23556;DHT22;11956;53.184;8.578;2023-02-28T09:19:00;20.30;57.70
23556;DHT22;11956;53.184;8.578;2023-02-28T09:22:02;19.70;59.00
23556;DHT22;11956;53.184;8.578;2023-02-28T09:25:03;20.10;57.30
23556;DHT22;11956;53.184;8.578;2023-02-28T09:28:04;20.70;57.40
23556;DHT22;11956;53.184;8.578;2023-02-28T09:31:05;22.30;54.10
23556;DHT22;11956;53.184;8.578;2023-02-28T09:34:05;23.00;52.60
23556;DHT22;11956;53.184;8.578;2023-02-28T09:37:07;24.00;50.10
23556;DHT22;11956;53.184;8.578;2023-02-28T09:40:09;24.90;47.10
23556;DHT22;11956;53.184;8.578;2023-02-28T09:43:14;25.00;45.40
23556;DHT22;11956;53.184;8.578;2023-02-28T09:49:37;22.70;45.40
23556;DHT22;11956;53.184;8.578;2023-02-28T09:52:42;22.60;46.40
23556;DHT22;11956;53.184;8.578;2023-02-28T09:55:49;21.70;46.60
23556;DHT22;11956;53.184;8.578;2023-02-28T09:58:59;22.90;43.80
23556;DHT22;11956;53.184;8.578;2023-02-28T10:02:32;23.90;42.90
23556;DHT22;11956;53.184;8.578;2023-02-28T10:06:11;24.20;42.70
23556;DHT22;11956;53.184;8.578;2023-02-28T10:09:23;25.10;41.10
23556;DHT22;11956;53.184;8.578;2023-02-28T10:12:28;24.70;39.50
23556;DHT22;11956;53.184;8.578;2023-02-28T10:15:31;22.80;41.10
23556;DHT22;11956;53.184;8.578;2023-02-28T10:18:44;20.90;44.60
23556;DHT22;11956;53.184;8.578;2023-02-28T10:21:59;21.20;44.60
23556;DHT22;11956;53.184;8.578;2023-02-28T10:25:23;21.80;42.90
23556;DHT22;11956;53.184;8.578;2023-02-28T10:28:32;22.50;42.40
23556;DHT22;11956;53.184;8.578;2023-02-28T10:31:33;21.90;43.00
23556;DHT22;11956;53.184;8.578;2023-02-28T10:34:34;21.20;44.60
23556;DHT22;11956;53.184;8.578;2023-02-28T10:37:38;21.70;43.10
23556;DHT22;11956;53.184;8.578;2023-02-28T10:40:39;20.20;42.80
23556;DHT22;11956;53.184;8.578;2023-02-28T10:43:42;20.50;44.40
23556;DHT22;11956;53.184;8.578;2023-02-28T10:46:43;21.40;42.50
23556;DHT22;11956;53.184;8.578;2023-02-28T10:49:49;18.80;45.30
23556;DHT22;11956;53.184;8.578;2023-02-28T10:52:53;15.10;51.40
23556;DHT22;11956;53.184;8.578;2023-02-28T11:02:31;9.60;66.10
23556;DHT22;11956;53.184;8.578;2023-02-28T11:05:36;9.50;68.80
23556;DHT22;11956;53.184;8.578;2023-02-28T11:08:45;9.30;70.00
23556;DHT22;11956;53.184;8.578;2023-02-28T11:11:49;9.00;71.70
23556;DHT22;11956;53.184;8.578;2023-02-28T11:15:03;8.70;73.80
23556;DHT22;11956;53.184;8.578;2023-02-28T11:21:33;7.70;79.90
23556;DHT22;11956;53.184;8.578;2023-02-28T11:24:37;7.50;80.80
23556;DHT22;11956;53.184;8.578;2023-02-28T11:27:46;7.20;82.60
23556;DHT22;11956;53.184;8.578;2023-02-28T11:34:25;7.60;82.80
23556;DHT22;11956;53.184;8.578;2023-02-28T11:37:28;7.70;83.90
23556;DHT22;11956;53.184;8.578;2023-02-28T11:40:39;7.80;84.70
23556;DHT22;11956;53.184;8.578;2023-02-28T11:43:53;8.00;84.40
23556;DHT22;11956;53.184;8.578;2023-02-28T12:04:48;8.00;84.50
23556;DHT22;11956;53.184;8.578;2023-02-28T12:08:20;7.90;84.70
23556;DHT22;11956;53.184;8.578;2023-02-28T12:11:52;8.10;84.70
23556;DHT22;11956;53.184;8.578;2023-02-28T12:24:44;7.90;78.80
23556;DHT22;11956;53.184;8.578;2023-02-28T12:27:59;7.90;76.50
23556;DHT22;11956;53.184;8.578;2023-02-28T12:31:06;7.90;77.50
23556;DHT22;11956;53.184;8.578;2023-02-28T12:34:44;7.90;80.30
23556;DHT22;11956;53.184;8.578;2023-02-28T12:38:19;7.90;81.10
23556;DHT22;11956;53.184;8.578;2023-02-28T12:41:48;7.80;81.50
23556;DHT22;11956;53.184;8.578;2023-02-28T12:44:54;7.70;83.70
23556;DHT22;11956;53.184;8.578;2023-02-28T12:48:08;7.70;83.10
23556;DHT22;11956;53.184;8.578;2023-02-28T12:51:12;7.90;82.60
23556;DHT22;11956;53.184;8.578;2023-02-28T12:57:58;7.60;81.90
23556;DHT22;11956;53.184;8.578;2023-02-28T13:11:25;7.70;76.20
23556;DHT22;11956;53.184;8.578;2023-02-28T13:14:36;7.60;75.40
23556;DHT22;11956;53.184;8.578;2023-02-28T13:17:39;7.50;74.50
23556;DHT22;11956;53.184;8.578;2023-02-28T13:20:47;7.40;75.70
23556;DHT22;11956;53.184;8.578;2023-02-28T13:30:01;7.60;79.20
23556;DHT22;11956;53.184;8.578;2023-02-28T13:36:50;7.60;81.80
23556;DHT22;11956;53.184;8.578;2023-02-28T13:40:33;7.70;81.10
23556;DHT22;11956;53.184;8.578;2023-02-28T13:44:01;7.60;80.50
23556;DHT22;11956;53.184;8.578;2023-02-28T13:50:27;7.50;81.50
23556;DHT22;11956;53.184;8.578;2023-02-28T13:54:03;7.50;81.80
23556;DHT22;11956;53.184;8.578;2023-02-28T14:00:57;7.40;82.40
23556;DHT22;11956;53.184;8.578;2023-02-28T14:07:56;7.60;84.30
23556;DHT22;11956;53.184;8.578;2023-02-28T14:11:08;7.60;83.40
23556;DHT22;11956;53.184;8.578;2023-02-28T14:17:37;7.70;83.90
23556;DHT22;11956;53.184;8.578;2023-02-28T14:20:40;7.70;83.90
23556;DHT22;11956;53.184;8.578;2023-02-28T14:30:52;7.60;84.80
23556;DHT22;11956;53.184;8.578;2023-02-28T14:37:26;7.70;85.10
23556;DHT22;11956;53.184;8.578;2023-02-28T14:40:34;7.40;84.10
23556;DHT22;11956;53.184;8.578;2023-02-28T14:43:35;7.20;85.00
23556;DHT22;11956;53.184;8.578;2023-02-28T14:46:39;7.20;84.10
23556;DHT22;11956;53.184;8.578;2023-02-28T14:49:45;7.10;84.50
23556;DHT22;11956;53.184;8.578;2023-02-28T14:52:52;7.10;85.30
23556;DHT22;11956;53.184;8.578;2023-02-28T14:55:54;7.20;84.30
23556;DHT22;11956;53.184;8.578;2023-02-28T14:58:56;7.30;83.40
23556;DHT22;11956;53.184;8.578;2023-02-28T15:02:20;7.30;83.50
23556;DHT22;11956;53.184;8.578;2023-02-28T15:05:34;7.20;82.60
23556;DHT22;11956;53.184;8.578;2023-02-28T15:08:35;7.10;82.00
23556;DHT22;11956;53.184;8.578;2023-02-28T15:11:37;7.00;82.20
23556;DHT22;11956;53.184;8.578;2023-02-28T15:14:42;7.10;82.90
23556;DHT22;11956;53.184;8.578;2023-02-28T15:17:46;7.10;83.00
23556;DHT22;11956;53.184;8.578;2023-02-28T15:20:51;7.20;83.10
23556;DHT22;11956;53.184;8.578;2023-02-28T15:23:56;7.20;83.80
23556;DHT22;11956;53.184;8.578;2023-02-28T15:27:05;7.20;84.30
23556;DHT22;11956;53.184;8.578;2023-02-28T15:30:15;7.30;84.40
23556;DHT22;11956;53.184;8.578;2023-02-28T15:33:22;7.30;83.80
23556;DHT22;11956;53.184;8.578;2023-02-28T15:36:30;7.30;83.90
23556;DHT22;11956;53.184;8.578;2023-02-28T15:39:42;7.40;83.20
23556;DHT22;11956;53.184;8.578;2023-02-28T15:43:07;7.40;83.50
23556;DHT22;11956;53.184;8.578;2023-02-28T15:46:11;7.30;84.40
23556;DHT22;11956;53.184;8.578;2023-02-28T15:49:19;7.20;84.40
23556;DHT22;11956;53.184;8.578;2023-02-28T15:55:41;7.10;86.30
23556;DHT22;11956;53.184;8.578;2023-02-28T15:58:42;7.00;87.10
23556;DHT22;11956;53.184;8.578;2023-02-28T16:01:44;7.00;87.10
23556;DHT22;11956;53.184;8.578;2023-02-28T16:08:15;6.80;87.50
23556;DHT22;11956;53.184;8.578;2023-02-28T16:11:16;6.80;87.40
23556;DHT22;11956;53.184;8.578;2023-02-28T16:14:26;6.80;87.50
23556;DHT22;11956;53.184;8.578;2023-02-28T16:17:29;6.80;87.60
23556;DHT22;11956;53.184;8.578;2023-02-28T16:20:33;6.70;87.70
23556;DHT22;11956;53.184;8.578;2023-02-28T16:23:34;6.70;87.90
23556;DHT22;11956;53.184;8.578;2023-02-28T16:26:36;6.60;88.50
23556;DHT22;11956;53.184;8.578;2023-02-28T16:29:40;6.60;88.40
23556;DHT22;11956;53.184;8.578;2023-02-28T16:32:41;6.60;89.40
23556;DHT22;11956;53.184;8.578;2023-02-28T16:35:42;6.50;89.30
23556;DHT22;11956;53.184;8.578;2023-02-28T16:38:43;6.40;89.50
23556;DHT22;11956;53.184;8.578;2023-02-28T16:41:45;6.40;90.00
23556;DHT22;11956;53.184;8.578;2023-02-28T16:44:47;6.40;90.30
23556;DHT22;11956;53.184;8.578;2023-02-28T16:47:49;6.30;90.50
23556;DHT22;11956;53.184;8.578;2023-02-28T16:50:50;6.30;90.50
23556;DHT22;11956;53.184;8.578;2023-02-28T16:53:51;6.10;90.70
23556;DHT22;11956;53.184;8.578;2023-02-28T16:56:52;6.00;91.20
23556;DHT22;11956;53.184;8.578;2023-02-28T16:59:53;6.00;91.50
23556;DHT22;11956;53.184;8.578;2023-02-28T17:02:55;6.00;92.10
23556;DHT22;11956;53.184;8.578;2023-02-28T17:05:56;5.80;92.40
23556;DHT22;11956;53.184;8.578;2023-02-28T17:08:58;5.70;93.00
23556;DHT22;11956;53.184;8.578;2023-02-28T17:11:59;5.60;94.20
23556;DHT22;11956;53.184;8.578;2023-02-28T17:15:00;5.40;94.90
23556;DHT22;11956;53.184;8.578;2023-02-28T17:18:02;5.30;96.50
23556;DHT22;11956;53.184;8.578;2023-02-28T17:21:04;5.10;97.50
23556;DHT22;11956;53.184;8.578;2023-02-28T17:24:10;4.90;98.10
23556;DHT22;11956;53.184;8.578;2023-02-28T17:27:12;4.70;99.00
23556;DHT22;11956;53.184;8.578;2023-02-28T17:33:15;4.40;99.90
23556;DHT22;11956;53.184;8.578;2023-02-28T17:36:22;4.30;99.90
23556;DHT22;11956;53.184;8.578;2023-02-28T17:39:26;4.20;99.90
23556;DHT22;11956;53.184;8.578;2023-02-28T17:42:27;4.10;99.90
23556;DHT22;11956;53.184;8.578;2023-02-28T17:45:28;4.00;99.90
23556;DHT22;11956;53.184;8.578;2023-02-28T17:48:29;3.90;99.90
23556;DHT22;11956;53.184;8.578;2023-02-28T17:51:30;3.70;99.90
23556;DHT22;11956;53.184;8.578;2023-02-28T17:54:31;3.60;99.90
23556;DHT22;11956;53.184;8.578;2023-02-28T17:57:32;3.50;99.90
23556;DHT22;11956;53.184;8.578;2023-02-28T18:00:33;3.40;99.90
23556;DHT22;11956;53.184;8.578;2023-02-28T18:03:34;3.40;99.90
23556;DHT22;11956;53.184;8.578;2023-02-28T18:06:43;3.30;99.90
23556;DHT22;11956;53.184;8.578;2023-02-28T18:09:47;3.20;99.90
23556;DHT22;11956;53.184;8.578;2023-02-28T18:12:50;3.10;99.90
23556;DHT22;11956;53.184;8.578;2023-02-28T18:15:52;3.00;99.90
23556;DHT22;11956;53.184;8.578;2023-02-28T18:18:53;2.90;99.90
23556;DHT22;11956;53.184;8.578;2023-02-28T18:21:54;2.80;99.90
23556;DHT22;11956;53.184;8.578;2023-02-28T18:24:55;2.70;99.90
23556;DHT22;11956;53.184;8.578;2023-02-28T18:27:55;2.60;99.90
23556;DHT22;11956;53.184;8.578;2023-02-28T18:31:07;2.50;99.90
23556;DHT22;11956;53.184;8.578;2023-02-28T18:34:09;2.50;99.90
23556;DHT22;11956;53.184;8.578;2023-02-28T18:37:10;2.30;99.90
23556;DHT22;11956;53.184;8.578;2023-02-28T18:40:11;2.30;99.90
23556;DHT22;11956;53.184;8.578;2023-02-28T18:43:14;2.20;99.90
23556;DHT22;11956;53.184;8.578;2023-02-28T18:46:17;2.20;99.90
23556;DHT22;11956;53.184;8.578;2023-02-28T18:49:19;2.00;99.90
23556;DHT22;11956;53.184;8.578;2023-02-28T18:52:20;1.90;99.90
23556;DHT22;11956;53.184;8.578;2023-02-28T18:55:22;1.80;99.90
23556;DHT22;11956;53.184;8.578;2023-02-28T18:58:23;1.80;99.90
23556;DHT22;11956;53.184;8.578;2023-02-28T19:01:26;1.70;99.90
23556;DHT22;11956;53.184;8.578;2023-02-28T19:04:30;1.60;99.90
23556;DHT22;11956;53.184;8.578;2023-02-28T19:07:31;1.50;99.90
23556;DHT22;11956;53.184;8.578;2023-02-28T19:10:37;1.50;99.90
23556;DHT22;11956;53.184;8.578;2023-02-28T19:13:39;1.40;99.90
23556;DHT22;11956;53.184;8.578;2023-02-28T19:16:41;1.30;99.90
23556;DHT22;11956;53.184;8.578;2023-02-28T19:19:42;1.20;99.90
23556;DHT22;11956;53.184;8.578;2023-02-28T19:22:43;1.20;99.90
23556;DHT22;11956;53.184;8.578;2023-02-28T19:25:44;1.20;99.90
23556;DHT22;11956;53.184;8.578;2023-02-28T19:28:46;1.10;99.90
23556;DHT22;11956;53.184;8.578;2023-02-28T19:31:47;1.00;99.90
23556;DHT22;11956;53.184;8.578;2023-02-28T19:34:48;0.90;99.90
23556;DHT22;11956;53.184;8.578;2023-02-28T19:37:49;0.90;99.90
23556;DHT22;11956;53.184;8.578;2023-02-28T19:41:09;0.80;99.90
23556;DHT22;11956;53.184;8.578;2023-02-28T19:44:11;0.80;99.90
23556;DHT22;11956;53.184;8.578;2023-02-28T19:47:12;0.70;99.90
23556;DHT22;11956;53.184;8.578;2023-02-28T19:50:13;0.60;99.90
23556;DHT22;11956;53.184;8.578;2023-02-28T19:53:14;0.60;99.90
23556;DHT22;11956;53.184;8.578;2023-02-28T19:56:15;0.60;99.90
23556;DHT22;11956;53.184;8.578;2023-02-28T19:59:15;0.50;99.90
23556;DHT22;11956;53.184;8.578;2023-02-28T20:02:18;0.40;99.90
23556;DHT22;11956;53.184;8.578;2023-02-28T20:05:20;0.40;99.90
23556;DHT22;11956;53.184;8.578;2023-02-28T20:08:21;0.30;99.90
23556;DHT22;11956;53.184;8.578;2023-02-28T20:11:21;0.20;99.90
23556;DHT22;11956;53.184;8.578;2023-02-28T20:14:22;0.20;99.90
23556;DHT22;11956;53.184;8.578;2023-02-28T20:17:23;0.20;99.90
23556;DHT22;11956;53.184;8.578;2023-02-28T20:20:25;0.20;99.90
23556;DHT22;11956;53.184;8.578;2023-02-28T20:23:26;0.20;99.90
23556;DHT22;11956;53.184;8.578;2023-02-28T20:26:27;0.20;99.90
23556;DHT22;11956;53.184;8.578;2023-02-28T20:29:28;0.10;99.90
23556;DHT22;11956;53.184;8.578;2023-02-28T20:32:29;0.10;99.90
23556;DHT22;11956;53.184;8.578;2023-02-28T20:35:30;0.10;99.90
23556;DHT22;11956;53.184;8.578;2023-02-28T20:38:31;0.10;99.90
23556;DHT22;11956;53.184;8.578;2023-02-28T20:41:32;0.00;99.90
23556;DHT22;11956;53.184;8.578;2023-02-28T20:44:33;-0.10;99.90
23556;DHT22;11956;53.184;8.578;2023-02-28T20:47:34;-0.10;99.90
23556;DHT22;11956;53.184;8.578;2023-02-28T20:50:35;-0.10;99.90
23556;DHT22;11956;53.184;8.578;2023-02-28T20:53:36;-0.20;99.90
23556;DHT22;11956;53.184;8.578;2023-02-28T20:56:37;-0.30;99.90
23556;DHT22;11956;53.184;8.578;2023-02-28T20:59:38;-0.30;99.90
23556;DHT22;11956;53.184;8.578;2023-02-28T21:02:40;-0.30;99.90
23556;DHT22;11956;53.184;8.578;2023-02-28T21:05:41;-0.30;99.90
23556;DHT22;11956;53.184;8.578;2023-02-28T21:08:42;-0.30;99.90
23556;DHT22;11956;53.184;8.578;2023-02-28T21:11:44;-0.30;99.90
23556;DHT22;11956;53.184;8.578;2023-02-28T21:14:45;-0.30;99.90
23556;DHT22;11956;53.184;8.578;2023-02-28T21:17:46;-0.30;99.90
23556;DHT22;11956;53.184;8.578;2023-02-28T21:20:48;-0.30;99.90
23556;DHT22;11956;53.184;8.578;2023-02-28T21:23:49;-0.40;99.90
23556;DHT22;11956;53.184;8.578;2023-02-28T21:26:51;-0.40;99.90
23556;DHT22;11956;53.184;8.578;2023-02-28T21:29:53;-0.50;99.90
23556;DHT22;11956;53.184;8.578;2023-02-28T21:32:54;-0.50;99.90
23556;DHT22;11956;53.184;8.578;2023-02-28T21:36:03;-0.60;99.90
23556;DHT22;11956;53.184;8.578;2023-02-28T21:39:16;-0.60;99.90
23556;DHT22;11956;53.184;8.578;2023-02-28T21:42:19;-0.60;99.90
23556;DHT22;11956;53.184;8.578;2023-02-28T21:45:20;-0.70;99.90
23556;DHT22;11956;53.184;8.578;2023-02-28T21:48:20;-0.70;99.90
23556;DHT22;11956;53.184;8.578;2023-02-28T21:51:24;-0.70;99.90
23556;DHT22;11956;53.184;8.578;2023-02-28T21:54:32;-0.70;99.90